地図

経路データ

SID SEASON NUMBER BASIN SUBBASIN NAME ISO_TIME NATURE LAT LON WMO_WIND WMO_PRES WMO_AGENCY TRACK_TYPE DIST2LAND LANDFALL IFLAG USA_AGENCY USA_ATCF_ID USA_LAT USA_LON USA_RECORD USA_STATUS USA_WIND USA_PRES USA_SSHS USA_R34_NE USA_R34_SE USA_R34_SW USA_R34_NW USA_R50_NE USA_R50_SE USA_R50_SW USA_R50_NW USA_R64_NE USA_R64_SE USA_R64_SW USA_R64_NW USA_POCI USA_ROCI USA_RMW USA_EYE TOKYO_LAT TOKYO_LON TOKYO_GRADE TOKYO_WIND TOKYO_PRES TOKYO_R50_DIR TOKYO_R50_LONG TOKYO_R50_SHORT TOKYO_R30_DIR TOKYO_R30_LONG TOKYO_R30_SHORT TOKYO_LAND CMA_LAT CMA_LON CMA_CAT CMA_WIND CMA_PRES HKO_LAT HKO_LON HKO_CAT HKO_WIND HKO_PRES NEWDELHI_LAT NEWDELHI_LON NEWDELHI_GRADE NEWDELHI_WIND NEWDELHI_PRES NEWDELHI_CI NEWDELHI_DP NEWDELHI_POCI REUNION_LAT REUNION_LON REUNION_TYPE REUNION_WIND REUNION_PRES REUNION_TNUM REUNION_CI REUNION_RMW REUNION_R34_NE REUNION_R34_SE REUNION_R34_SW REUNION_R34_NW REUNION_R50_NE REUNION_R50_SE REUNION_R50_SW REUNION_R50_NW REUNION_R64_NE REUNION_R64_SE REUNION_R64_SW REUNION_R64_NW BOM_LAT BOM_LON BOM_TYPE BOM_WIND BOM_PRES BOM_TNUM BOM_CI BOM_RMW BOM_R34_NE BOM_R34_SE BOM_R34_SW BOM_R34_NW BOM_R50_NE BOM_R50_SE BOM_R50_SW BOM_R50_NW BOM_R64_NE BOM_R64_SE BOM_R64_SW BOM_R64_NW BOM_ROCI BOM_POCI BOM_EYE BOM_POS_METHOD BOM_PRES_METHOD NADI_LAT NADI_LON NADI_CAT NADI_WIND NADI_PRES WELLINGTON_LAT WELLINGTON_LON WELLINGTON_WIND WELLINGTON_PRES DS824_LAT DS824_LON DS824_STAGE DS824_WIND DS824_PRES TD9636_LAT TD9636_LON TD9636_STAGE TD9636_WIND TD9636_PRES TD9635_LAT TD9635_LON TD9635_WIND TD9635_PRES TD9635_ROCI NEUMANN_LAT NEUMANN_LON NEUMANN_CLASS NEUMANN_WIND NEUMANN_PRES MLC_LAT MLC_LON MLC_CLASS MLC_WIND MLC_PRES USA_GUST BOM_GUST BOM_GUST_PER REUNION_GUST REUNION_GUST_PER USA_SEAHGT USA_SEARAD_NE USA_SEARAD_SE USA_SEARAD_SW USA_SEARAD_NW STORM_SPEED STORM_DIR
1951009S16140 1951 4 SP EA NOT_NAMED 1951-01-08 23:00:00 NR -16.3000 140.050 1002 bom main 123 117 ______O___O___ -1 -16.2000 140.000 1002 -16.4000 140.100 7 8 134
1951009S16140 1951 4 SP EA NOT_NAMED 1951-01-09 00:00:00 TS -16.3958 140.150 main 117 78 O_____P__OP___ jtwc_sh SH091951 -16.5000 140.200 -1 -16.2507 140.073 -16.3000 140.100 TC 25 1002 -16.4846 140.202 7 7 129
1951009S16140 1951 4 SP EA NOT_NAMED 1951-01-09 03:00:00 TS -16.5886 140.423 main 78 38 P_____P__PP___ SH091951 -16.6851 140.507 -1 -16.4051 140.293 -16.4523 140.327 TC -16.7342 140.503 7 6 127
1951009S16140 1951 4 SP EA NOT_NAMED 1951-01-09 06:00:00 TS -16.7874 140.688 main 38 10 O_____P__PP___ jtwc_sh SH091951 -16.9000 140.800 -1 -16.5686 140.516 -16.6114 140.556 TC -16.9692 140.789 7 7 130
1951009S16140 1951 4 SP EA NOT_NAMED 1951-01-09 09:00:00 TS -17.0053 140.943 main 10 0 P_____P__PP___ SH091951 -17.1575 141.065 -1 -16.7480 140.747 -16.7843 140.790 TC -17.1792 141.048 7 6 132
1951009S16140 1951 4 SP EA NOT_NAMED 1951-01-09 11:00:00 TS -17.1483 141.101 main 0 0 P_____P__PO___ SH091951 -17.3254 141.225 -1 -16.8799 140.906 -16.9106 140.949 TC -17.3000 141.200 7 6 134
1951009S16140 1951 4 SP EA NOT_NAMED 1951-01-09 12:00:00 TS -17.2164 141.177 main 0 0 O_____P__PP___ jtwc_sh SH091951 -17.4000 141.300 -1 -16.9504 140.987 -16.9779 141.030 TC -17.3538 141.268 7 6 132
1951009S16140 1951 4 SP EA NOT_NAMED 1951-01-09 15:00:00 TS -17.3993 141.398 main 0 0 P_____P__PP___ SH091951 -17.5575 141.508 -1 -17.1825 141.240 -17.1992 141.279 TC -17.4997 141.454 7 6 132
1951009S16140 1951 4 SP EA NOT_NAMED 1951-01-09 18:00:00 TS -17.5912 141.616 main 0 0 O_____P__PP___ jtwc_sh SH091951 -17.7000 141.700 -1 -17.4514 141.509 -17.4554 141.539 TC -17.6492 141.632 7 6 135
1951009S16140 1951 4 SP EA NOT_NAMED 1951-01-09 21:00:00 TS -17.8188 141.837 main 0 0 P_____P__PP___ SH091951 -17.8699 141.870 -1 -17.7639 141.796 -17.7533 141.812 TC -17.8368 141.835 7 7 138
1951009S16140 1951 4 SP EA NOT_NAMED 1951-01-09 23:00:00 TS -18.0011 142.005 995 bom main 0 0 P_____O__PO___ SH091951 -18.0135 142.011 -1 -18.0000 142.000 995 -17.9786 142.002 TC -18.0000 142.000 7 8 139
1951009S16140 1951 4 SP EA NOT_NAMED 1951-01-10 00:00:00 TS -18.1048 142.104 main 0 0 O_____P__OP___ jtwc_sh SH091951 -18.1000 142.100 -1 -18.1270 142.106 -18.1000 142.100 TC 40 995 -18.0972 142.115 7 9 137
1951009S16140 1951 4 SP EA NOT_NAMED 1951-01-10 03:00:00 TS -18.4568 142.459 main 0 0 P_____P__PP___ SH091951 -18.4051 142.478 -1 -18.5392 142.434 -18.4988 142.404 TC -18.4359 142.503 7 10 138
1951009S16140 1951 4 SP EA NOT_NAMED 1951-01-10 06:00:00 TS -18.8721 142.839 main 0 0 O_____P__PP___ jtwc_sh SH091951 -18.8000 142.900 -1 -18.9871 142.766 -18.9384 142.713 TC -18.8350 142.915 7 11 142
1951009S16140 1951 4 SP EA NOT_NAMED 1951-01-10 09:00:00 TS -19.3364 143.194 main 0 0 P_____P__PP___ SH091951 -19.2700 143.287 -1 -19.4561 143.089 -19.4039 143.013 TC -19.2817 143.294 7 12 146
1951009S16140 1951 4 SP EA NOT_NAMED 1951-01-10 11:00:00 TS -19.6668 143.402 main 0 0 P_____P__PO___ SH091951 -19.6198 143.509 -1 -19.7734 143.290 -19.7212 143.202 TC -19.6000 143.500 7 12 151
1951009S16140 1951 4 SP EA NOT_NAMED 1951-01-10 12:00:00 TS -19.8370 143.492 main 0 0 O_____P__PP___ jtwc_sh SH091951 -19.8000 143.600 -1 -19.9318 143.386 -19.8803 143.291 TC -19.7728 143.584 7 11 157
1951009S16140 1951 4 SP EA NOT_NAMED 1951-01-10 15:00:00 TS -20.3585 143.712 main 0 0 P_____P__PP___ SH091951 -20.3574 143.803 -1 -20.3995 143.641 -20.3529 143.533 TC -20.3251 143.780 7 11 162
1951009S16140 1951 4 SP EA NOT_NAMED 1951-01-10 18:00:00 TS -20.8678 143.852 main 0 0 O_____P__PP___ jtwc_sh SH091951 -20.9000 143.900 -1 -20.8452 143.840 -20.8068 143.725 TC -20.8869 143.894 7 10 168
1951009S16140 1951 4 SP EA NOT_NAMED 1951-01-10 21:00:00 TS -21.3354 143.926 main 0 0 P_____P__PP___ SH091951 -21.3949 143.945 -1 -21.2544 143.965 -21.2274 143.852 TC -21.4051 143.925 7 9 174
1951009S16140 1951 4 SP EA NOT_NAMED 1951-01-10 23:00:00 TS -21.6076 143.929 997 bom main 0 0 P_____O__PO___ SH091951 -21.6781 143.925 -1 -21.5000 144.000 997 -21.4821 143.894 TC -21.7000 143.900 7 8 182
1951009S16140 1951 4 SP EA NOT_NAMED 1951-01-11 00:00:00 TS -21.7269 143.915 main 0 0 O_____P__OP___ jtwc_sh SH091951 -21.8000 143.900 -1 -21.6132 143.990 -21.6000 143.900 TC 35 997 -21.8213 143.885 7 7 194
1951009S16140 1951 4 SP EA NOT_NAMED 1951-01-11 03:00:00 TS -22.0323 143.818 main 0 0 P_____P__PP___ SH091951 -22.0950 143.788 -1 -21.9295 143.900 -21.9203 143.832 TC -22.1218 143.781 7 6 205
1951009S16140 1951 4 SP EA NOT_NAMED 1951-01-11 06:00:00 TS -22.2711 143.644 main 0 0 O_____P__PP___ jtwc_sh SH091951 -22.3000 143.600 -1 -22.2092 143.730 -22.2024 143.684 TC -22.3440 143.605 7 6 221
1951009S16140 1951 4 SP EA NOT_NAMED 1951-01-11 09:00:00 TS -22.4669 143.416 main 0 0 P_____P__PP___ SH091951 -22.4650 143.372 -1 -22.4501 143.495 -22.4447 143.469 TC -22.5099 143.374 7 6 231
1951009S16140 1951 4 SP EA NOT_NAMED 1951-01-11 11:00:00 TS -22.5764 143.239 main 0 0 P_____P__PO___ SH091951 -22.5552 143.194 -1 -22.5881 143.309 -22.5833 143.295 TC -22.6000 143.200 7 6 237
1951009S16140 1951 4 SP EA NOT_NAMED 1951-01-11 12:00:00 TS -22.6309 143.145 main 0 0 O_____P__PP___ jtwc_sh SH091951 -22.6000 143.100 -1 -22.6500 143.210 -22.6455 143.201 TC -22.6588 143.116 7 6 239
1951009S16140 1951 4 SP EA NOT_NAMED 1951-01-11 15:00:00 TS -22.7902 142.847 main 0 0 P_____P__PP___ SH091951 -22.7650 142.808 -1 -22.8070 142.891 -22.8031 142.896 TC -22.8111 142.834 7 6 244
1951009S16140 1951 4 SP EA NOT_NAMED 1951-01-11 18:00:00 TS -22.9114 142.530 main 0 0 O_____P__PP___ jtwc_sh SH091951 -22.9000 142.500 -1 -22.9188 142.555 -22.9157 142.567 TC -22.9224 142.525 7 6 252
1951009S16140 1951 4 SP EA NOT_NAMED 1951-01-11 21:00:00 TS -22.9824 142.208 main 0 0 P_____P__PP___ SH091951 -22.9800 142.192 -1 -22.9837 142.218 -22.9818 142.230 TC -22.9865 142.208 7 6 260
1951009S16140 1951 4 SP EA NOT_NAMED 1951-01-11 23:00:00 TS -22.9999 141.999 999 bom main 0 0 P_____O__PO___ SH091951 -23.0000 141.994 -1 -23.0000 142.000 999 -22.9993 142.008 TC -23.0000 142.000 7 6 266
1951009S16140 1951 4 SP EA NOT_NAMED 1951-01-12 00:00:00 TS -23.0029 141.906 main 0 0 O_____P__OP___ jtwc_sh SH091951 -23.0000 141.900 -1 -23.0124 141.930 -23.0000 141.900 TC 30 999 -23.0021 141.901 7 5 272
1951009S16140 1951 4 SP EA NOT_NAMED 1951-01-12 03:00:00 TS -22.9876 141.664 main 0 0 P_____P__PP___ SH091951 -22.9724 141.650 -1 -23.0157 141.727 -23.0058 141.682 TC -22.9715 141.609 7 5 280
1951009S16140 1951 4 SP EA NOT_NAMED 1951-01-12 06:00:00 TS -22.9258 141.425 main 0 0 O_____P__PP___ jtwc_sh SH091951 -22.9000 141.400 -1 -22.9714 141.527 -22.9625 141.468 TC -22.8952 141.327 7 5 289
1951009S16140 1951 4 SP EA NOT_NAMED 1951-01-12 09:00:00 TS -22.8316 141.164 main 0 0 P_____P__PP___ SH091951 -22.8076 141.092 -1 -22.8833 141.321 -22.8741 141.249 TC -22.7855 141.063 7 5 293
1951009S16140 1951 4 SP EA NOT_NAMED 1951-01-12 11:00:00 TS -22.7532 140.991 main 0 0 P_____P__PO___ SH091951 -22.7360 140.891 -1 -22.8020 141.175 -22.7923 141.096 TC -22.7000 140.900 7 5 297
1951009S16140 1951 4 SP EA NOT_NAMED 1951-01-12 12:00:00 TS -22.7142 140.910 main 0 0 O_____P__PP___ jtwc_sh SH091951 -22.7000 140.800 -1 -22.7550 141.099 -22.7449 141.017 TC -22.6709 140.836 7 5 299
1951009S16140 1951 4 SP EA NOT_NAMED 1951-01-12 15:00:00 TS -22.5972 140.690 main 0 0 P_____P__PP___ SH091951 -22.6224 140.585 -1 -22.5903 140.851 -22.5790 140.764 TC -22.5717 140.665 7 5 304
1951009S16140 1951 4 SP EA NOT_NAMED 1951-01-12 18:00:00 TS -22.4427 140.469 main 0 0 O_____P__PP___ jtwc_sh SH091951 -22.5000 140.400 -1 -22.3928 140.570 -22.3802 140.482 TC -22.4404 140.495 7 6 311
1951009S16140 1951 4 SP EA NOT_NAMED 1951-01-12 21:00:00 TS -22.2334 140.231 main 0 0 P_____P__PP___ SH091951 -22.2948 140.230 -1 -22.1659 140.245 -22.1526 140.164 TC -22.2586 140.284 7 7 314
1951009S16140 1951 4 SP EA NOT_NAMED 1951-01-12 23:00:00 TS -22.0606 140.041 999 bom main 0 0 P_____O__PO___ SH091951 -22.1082 140.090 -1 -22.0000 140.000 999 -21.9868 139.927 TC -22.1000 140.100 7 8 314
1951009S16140 1951 4 SP EA NOT_NAMED 1951-01-13 00:00:00 TS -21.9641 139.929 main 0 0 O_____P__OP___ jtwc_sh SH091951 -22.0000 140.000 -1 -21.9168 139.850 -21.9000 139.800 TC 30 999 -22.0038 139.993 7 10 312
1951009S16140 1951 4 SP EA NOT_NAMED 1951-01-13 03:00:00 TS -21.6332 139.523 main 0 0 P_____P__PP___ SH091951 -21.6149 139.652 -1 -21.6407 139.358 -21.6301 139.331 TC -21.6652 139.622 7 11 310
1951009S16140 1951 4 SP EA NOT_NAMED 1951-01-13 06:00:00 TS -21.2667 139.042 main 0 0 O_____P__PP___ jtwc_sh SH091951 -21.2000 139.200 -1 -21.3316 138.819 -21.3262 138.813 TC -21.2758 139.179 7 12 307
1951009S16140 1951 4 SP EA NOT_NAMED 1951-01-13 09:00:00 TS -20.9124 138.515 main 0 0 P_____P__PP___ SH091951 -20.8498 138.695 -1 -20.9983 138.250 -20.9970 138.264 TC -20.8674 138.672 7 12 305
1951009S16140 1951 4 SP EA NOT_NAMED 1951-01-13 11:00:00 TS -20.6749 138.133 main 0 0 P_____P__PO___ SH091951 -20.6196 138.309 -1 -20.7673 137.863 -20.7681 137.887 TC -20.6000 138.300 7 13 303
1951009S16140 1951 4 SP EA NOT_NAMED 1951-01-13 12:00:00 TS -20.5543 137.932 main 0 0 O_____P__PP___ jtwc_sh SH091951 -20.5000 138.100 -1 -20.6502 137.669 -20.6518 137.698 TC -20.4694 138.095 7 14 302
1951009S16140 1951 4 SP EA NOT_NAMED 1951-01-13 15:00:00 TS -20.1720 137.291 main 0 0 P_____P__PP___ SH091951 -20.0927 137.400 -1 -20.2964 137.092 -20.2998 137.133 TC -20.0782 137.430 7 14 302
1951009S16140 1951 4 SP EA NOT_NAMED 1951-01-13 18:00:00 TS -19.8009 136.652 main 0 0 O_____P__PP___ jtwc_sh SH091951 -19.7000 136.700 -1 -19.9468 136.536 -19.9507 136.585 TC -19.7069 136.739 7 14 302
1951009S16140 1951 4 SP EA NOT_NAMED 1951-01-13 21:00:00 TS -19.4630 136.073 main 0 0 P_____P__PP___ SH091951 -19.3549 136.098 -1 -19.6111 136.017 -19.6142 136.069 TC -19.3802 136.085 7 12 301
1951009S16140 1951 4 SP EA NOT_NAMED 1951-01-13 23:00:00 TS -19.2691 135.731 1001 bom main 0 0 P_____O__PO___ SH091951 -19.1719 135.753 -1 -19.4000 135.700 1001 -19.4016 135.750 TC -19.2000 135.700 7 11 301
1951009S16140 1951 4 SP EA NOT_NAMED 1951-01-14 00:00:00 TS -19.1868 135.581 main 0 0 O_____P__OP___ jtwc_sh SH091951 -19.1000 135.600 -1 -19.3041 135.561 -19.3000 135.600 TC 30 1001 -19.1301 135.543 7 9 298
1951009S16140 1951 4 SP EA NOT_NAMED 1951-01-14 03:00:00 TS -18.9959 135.191 main 0 0 P_____P__PP___ SH091951 -18.9772 135.220 -1 -19.0262 135.169 -19.0269 135.210 TC -18.9717 135.135 7 8 297
1951009S16140 1951 4 SI WA NOT_NAMED 1951-01-14 06:00:00 TS -18.8397 134.854 main 0 0 O_____P__PP___ jtwc_sh SH091951 -18.9000 134.900 -1 -18.7638 134.814 -18.7714 134.857 TC -18.8634 134.798 7 7 298
1951009S16140 1951 4 SI WA NOT_NAMED 1951-01-14 09:00:00 TS -18.6672 134.526 main 0 0 P_____P__PP___ SH091951 -18.7574 134.550 -1 -18.5174 134.494 -18.5333 134.541 TC -18.7705 134.497 7 7 300
1951009S16140 1951 4 SI WA NOT_NAMED 1951-01-14 11:00:00 TS -18.5504 134.316 main 0 0 P_____P__PO___ SH091951 -18.6526 134.317 -1 -18.3624 134.299 -18.3841 134.348 TC -18.7000 134.300 7 7 301
1951009S16140 1951 4 SI WA NOT_NAMED 1951-01-14 12:00:00 TS -18.4897 134.209 main 0 0 O_____P__PP___ jtwc_sh SH091951 -18.6000 134.200 -1 -18.2878 134.207 -18.3125 134.257 TC -18.6484 134.180 7 7 300
1951009S16140 1951 4 SI WA NOT_NAMED 1951-01-14 15:00:00 TS -18.3164 133.892 main 0 0 P_____P__PP___ SH091951 -18.4575 133.843 -1 -18.0757 133.951 -18.1089 134.004 TC -18.4826 133.821 7 7 301
1951009S16140 1951 4 SI WA NOT_NAMED 1951-01-14 18:00:00 TS -18.1418 133.596 main 0 0 O_____P__PP___ jtwc_sh SH091951 -18.3000 133.500 -1 -17.8816 133.723 -17.9224 133.778 TC -18.3050 133.479 7 6 304
1951009S16140 1951 4 SI WA NOT_NAMED 1951-01-14 21:00:00 TS -17.9562 133.325 main 0 0 P_____P__PP___ SH091951 -18.1000 133.177 -1 -17.7062 133.521 -17.7528 133.578 TC -18.1220 133.174 7 6 307
1951009S16140 1951 4 SI WA NOT_NAMED 1951-01-14 23:00:00 TS -17.8352 133.166 1000 bom main 0 0 P_____O__PO___ SH091951 -17.9636 132.986 -1 -17.6000 133.400 1000 -17.6491 133.457 TC -18.0000 133.000 7 6 308
1951009S16140 1951 4 SI WA NOT_NAMED 1951-01-15 00:00:00 TS -17.7781 133.088 main 0 0 O_____P__OP___ jtwc_sh SH091951 -17.9000 132.900 -1 -17.5466 133.329 -17.6000 133.400 TC 30 1000 -17.9440 132.912 7 5 306
1951009S16140 1951 4 SI WA NOT_NAMED 1951-01-15 03:00:00 TS -17.6261 132.867 main 0 0 P_____P__PP___ SH091951 -17.7500 132.663 -1 -17.4011 133.134 -17.4520 133.197 TC -17.7773 132.680 7 5 309
1951009S16140 1951 4 SI WA NOT_NAMED 1951-01-15 06:00:00 TS -17.4810 132.698 main 0 0 O_____P__PP___ jtwc_sh SH091951 -17.6000 132.500 -1 -17.2752 132.966 -17.3224 133.018 TC -17.6073 132.508 7 4 319
1951009S16140 1951 4 SI WA NOT_NAMED 1951-01-15 09:00:00 TS -17.3236 132.585 main 0 0 P_____P__PP___ SH091951 -17.4075 132.413 -1 -17.1662 132.823 -17.2090 132.863 TC -17.4279 132.413 7 4 331
1951009S16140 1951 4 SI WA NOT_NAMED 1951-01-15 11:00:00 TS -17.2163 132.542 main 0 0 P_____P__PO___ SH091951 -17.2693 132.397 -1 -17.1016 132.742 -17.1411 132.774 TC -17.3000 132.400 7 3 341
1951009S16140 1951 4 SI WA NOT_NAMED 1951-01-15 12:00:00 TS -17.1609 132.526 main 0 0 O_____P__PP___ jtwc_sh SH091951 -17.2000 132.400 -1 -17.0714 132.706 -17.1092 132.734 TC -17.2241 132.390 7 3 344
1951009S16140 1951 4 SI WA NOT_NAMED 1951-01-15 15:00:00 TS -17.0012 132.489 main 0 0 P_____P__PP___ SH091951 -17.0074 132.390 -1 -16.9880 132.615 -17.0208 132.632 TC -16.9824 132.419 7 3 0
1951009S16140 1951 4 SI WA NOT_NAMED 1951-01-15 18:00:00 TS -16.8388 132.530 main 0 0 O_____P__PP___ jtwc_sh SH091951 -16.8000 132.500 -1 -16.9131 132.550 -16.9414 132.558 TC -16.7394 132.543 7 4 26
1951009S16140 1951 4 SI WA NOT_NAMED 1951-01-15 21:00:00 TS -16.6576 132.671 main 0 0 P_____P__PP___ SH091951 -16.5274 132.775 -1 -16.8441 132.511 -16.8686 132.514 TC -16.5204 132.777 7 5 44
1951009S16140 1951 4 SI WA NOT_NAMED 1951-01-15 23:00:00 TS -16.5497 132.818 994 bom main 0 0 P_____O__PO___ SH091951 -16.3630 133.045 -1 -16.8000 132.500 994 -16.8225 132.501 TC -16.4000 133.000 7 5 55
1951009S16140 1951 4 SI WA NOT_NAMED 1951-01-16 00:00:00 TS -16.5050 132.902 main 0 0 O_____P__OP___ jtwc_sh SH091951 -16.3000 133.200 -1 -16.7734 132.475 -16.8000 132.500 TC 40 994 -16.3515 133.135 7 6 70
1951009S16140 1951 4 SI WA NOT_NAMED 1951-01-16 03:00:00 TS -16.4197 133.186 main 0 0 P_____P__PP___ SH091951 -16.2201 133.720 -1 -16.6982 132.412 -16.7226 132.452 TC -16.2374 133.629 7 6 77
1951009S16140 1951 4 SI WA NOT_NAMED 1951-01-16 06:00:00 TS -16.3686 133.522 main 0 0 O_____P__PP___ jtwc_sh SH091951 -16.2000 134.300 -1 -16.6290 132.372 -16.6515 132.430 TC -16.1626 134.210 7 7 81
1951009S16140 1951 4 SI WA NOT_NAMED 1951-01-16 09:00:00 TS -16.3106 133.867 main 0 0 P_____P__PP___ SH091951 -16.1424 134.858 -1 -16.5646 132.365 -16.5857 132.441 TC -16.1177 134.814 7 7 81
1951009S16140 1951 4 SI WA NOT_NAMED 1951-01-16 11:00:00 TS -16.2780 134.099 main 0 0 P_____P__PO___ SH091951 -16.1109 135.222 -1 -16.5240 132.382 -16.5443 132.469 TC -16.1000 135.200 7 7 82
1951009S16140 1951 4 SI WA NOT_NAMED 1951-01-16 12:00:00 TS -16.2634 134.213 main 0 0 O_____P__PP___ jtwc_sh SH091951 -16.1000 135.400 -1 -16.5043 132.398 -16.5242 132.490 TC -16.0887 135.378 7 7 84
1951009S16140 1951 4 SI WA NOT_NAMED 1951-01-16 15:00:00 TS -16.2337 134.564 main 0 0 P_____P__PP___ SH091951 -16.0925 135.930 -1 -16.4469 132.481 -16.4660 132.584 TC -16.0709 135.896 7 7 86
1951009S16140 1951 4 SI WA NOT_NAMED 1951-01-16 18:00:00 TS -16.2147 134.904 main 0 0 O_____P__PP___ jtwc_sh SH091951 -16.1000 136.400 -1 -16.3914 132.620 -16.4100 132.730 TC -16.0723 136.372 7 6 86
1951009S16140 1951 4 SP EA NOT_NAMED 1951-01-16 21:00:00 TS -16.1926 135.228 main 0 0 P_____P__PP___ SH091951 -16.0924 136.803 -1 -16.3367 132.824 -16.3550 132.933 TC -16.0865 136.779 7 6 86
1951009S16140 1951 4 SP EA NOT_NAMED 1951-01-16 23:00:00 TS -16.1814 135.426 994 bom main 0 0 P_____O__PO___ SH091951 -16.0943 137.014 -1 -16.3000 133.000 994 -16.3184 133.104 TC -16.1000 137.000 7 6 86
1951009S16140 1951 4 SP EA NOT_NAMED 1951-01-17 00:00:00 TS -16.1754 135.521 main 0 0 O_____P__OP___ jtwc_sh SH091951 -16.1000 137.100 -1 -16.2734 133.111 -16.3000 133.200 TC 40 994 -16.1035 137.091 7 5 87
1951009S16140 1951 4 SP EA NOT_NAMED 1951-01-17 03:00:00 TS -16.1652 135.789 main 0 0 P_____P__PP___ SH091951 -16.1499 137.287 -1 -16.1905 133.502 -16.2166 133.568 TC -16.1193 137.300 7 5 88
1951009S16140 1951 4 SP EA NOT_NAMED 1951-01-17 06:00:00 TS -16.1559 136.042 main 0 0 O_____P__PP___ jtwc_sh SH091951 -16.2000 137.400 -1 -16.1062 133.964 -16.1301 134.008 TC -16.1431 137.437 7 5 86
1951009S16140 1951 4 SP EA NOT_NAMED 1951-01-17 09:00:00 TS -16.1288 136.303 main 0 0 P_____P__PP___ SH091951 -16.2000 137.500 -1 -16.0243 134.477 -16.0450 134.500 TC -16.1747 137.537 7 5 84
1951009S16140 1951 4 SP EA NOT_NAMED 1951-01-17 11:00:00 TS -16.1116 136.483 main 0 0 P_____P__PO___ SH091951 -16.1969 137.564 -1 -15.9732 134.838 -15.9911 134.848 TC -16.2000 137.600 7 5 85
1951009S16140 1951 4 SP EA NOT_NAMED 1951-01-17 12:00:00 TS -16.1048 136.574 main 0 0 O_____P__PP___ jtwc_sh SH091951 -16.2000 137.600 -1 -15.9491 135.023 -15.9656 135.026 TC -16.2094 137.623 7 5 88
1951009S16140 1951 4 SP EA NOT_NAMED 1951-01-17 15:00:00 TS -16.1016 136.862 main 0 0 P_____P__PP___ SH091951 -16.2425 137.742 -1 -15.8846 135.582 -15.8965 135.567 TC -16.2416 137.677 7 6 91
1951009S16140 1951 4 SP EA NOT_NAMED 1951-01-17 18:00:00 TS -16.1126 137.160 main 0 0 O_____P__PP___ jtwc_sh SH091951 -16.3000 137.900 -1 -15.8354 136.137 -15.8426 136.105 TC -16.2850 137.756 7 5 93
1951009S16140 1951 4 SP EA NOT_NAMED 1951-01-17 21:00:00 TS -16.1291 137.431 main 0 0 P_____P__PP___ SH091951 -16.3421 137.975 -1 -15.8061 136.668 -15.8087 136.622 TC -16.3461 137.917 7 6 95
1951009S16140 1951 4 SP EA NOT_NAMED 1951-01-17 23:00:00 TS -16.1509 137.646 999 bom main 0 0 P_____O__PO___ SH091951 -16.3774 138.093 -1 -15.8000 137.000 999 -15.7998 136.946 TC -16.4000 138.100 7 7 96
1951009S16140 1951 4 SP EA NOT_NAMED 1951-01-18 00:00:00 TS -16.1651 137.780 main 10 10 O_____P__OP___ jtwc_sh SH091951 -16.4000 138.200 -1 -15.8054 137.146 -15.8000 137.100 TC 30 999 -16.4200 138.256 7 10 97
1951009S16140 1951 4 SP EA NOT_NAMED 1951-01-18 03:00:00 TS -16.2241 138.302 main 54 54 P_____P__PP___ SH091951 -16.4781 138.805 -1 -15.8389 137.570 -15.8346 137.497 TC -16.4910 138.833 7 11 98
1951009S16140 1951 4 SP EA NOT_NAMED 1951-01-18 06:00:00 TS -16.3170 138.864 main 64 55 O_____P__PP___ jtwc_sh SH091951 -16.6000 139.500 -1 -15.8946 137.970 -15.8954 137.867 TC -16.5948 139.481 7 10 102
1951009S16140 1951 4 SP EA NOT_NAMED 1951-01-18 09:00:00 TS -16.4445 139.340 main 64 59 P_____P__PP___ SH091951 -16.7624 140.032 -1 -15.9678 138.345 -15.9769 138.208 TC -16.7530 140.083 7 9 109
1951009S16140 1951 4 SP EA NOT_NAMED 1951-01-18 11:00:00 TS -16.5571 139.600 main 61 61 P_____P__PO___ SH091951 -16.9109 140.300 -1 -16.0239 138.580 -16.0399 138.421 TC -16.9000 140.400 7 8 117
1951009S16140 1951 4 SP EA NOT_NAMED 1951-01-18 12:00:00 TS -16.6224 139.702 main 69 62 O_____P__PP___ jtwc_sh SH091951 -17.0000 140.400 -1 -16.0536 138.693 -16.0734 138.522 TC -16.9849 140.496 7 6 133
1951009S16140 1951 4 SP EA NOT_NAMED 1951-01-18 15:00:00 TS -16.8489 139.923 main 77 59 P_____P__PP___ SH091951 -17.3123 140.560 -1 -16.1474 139.011 -16.1796 138.809 TC -17.2927 140.675 7 6 146
1951009S16140 1951 4 SP EA NOT_NAMED 1951-01-18 18:00:00 TS -17.1204 140.059 main 64 33 O_____P__PP___ jtwc_sh SH091951 -17.7000 140.600 -1 -16.2443 139.298 -16.2898 139.067 TC -17.6680 140.732 7 6 157
1951009S16140 1951 4 SP EA NOT_NAMED 1951-01-18 21:00:00 TS -17.4176 140.180 main 33 11 P_____P__PP___ SH091951 -18.1275 140.665 -1 -16.3397 139.551 -16.3984 139.298 TC -18.0948 140.720 7 7 161
1951009S16140 1951 4 SP EA NOT_NAMED 1951-01-18 23:00:00 TS -17.6291 140.244 998 bom main 11 0 P_____O__PO___ SH091951 -18.4390 140.692 -1 -16.4000 139.700 998 -16.4673 139.436 TC -18.4000 140.700 7 5 167
1951009S16140 1951 4 SP EA NOT_NAMED 1951-01-19 00:00:00 TS -17.6730 140.244 main 0 0 O_____P__OP___ jtwc_sh SH091951 -18.6000 140.700 -1 -16.4235 139.774 -16.5000 139.500 TC 35 998 -18.5595 140.681 7 4 173
1951009S16140 1951 4 SP EA NOT_NAMED 1951-01-19 03:00:00 TS -17.9227 140.290 main 0 0 P_____P__PP___ SH091951 -19.1000 140.708 -1 -16.4934 139.971 -16.5770 139.696 TC -19.0697 140.596 7 5 170
1951009S16140 1951 4 SP EA NOT_NAMED 1951-01-19 06:00:00 TS -18.1588 140.330 main 0 0 O_____P__PP___ jtwc_sh SH091951 -19.6000 140.700 -1 -16.5617 140.134 -16.6506 139.862 TC -19.5960 140.531 7 5 171
1951009S16140 1951 4 SP EA NOT_NAMED 1951-01-19 09:00:00 TS -18.3665 140.363 main 0 0 P_____P__PP___ SH091951 -20.0723 140.626 -1 -16.6281 140.265 -16.7206 140.000 TC -20.0983 140.572 7 5 165
1951009S16140 1951 4 SP EA NOT_NAMED 1951-01-19 11:00:00 TS -18.5359 140.429 main 0 0 P_____P__PO___ SH091951 -20.3639 140.643 -1 -16.6711 140.338 -16.7650 140.080 TC -20.4000 140.700 7 2 128
1951009S16140 1951 4 SP EA NOT_NAMED 1951-01-19 12:00:00 TS -18.4433 140.463 main 0 0 O_____P__PP___ jtwc_sh SH091951 -20.5000 140.700 -1 -16.6922 140.370 -16.7864 140.115 TC -20.5368 140.803 7 4 63
1951009S16140 1951 4 SP EA NOT_NAMED 1951-01-19 15:00:00 TS -18.4199 140.668 main 0 0 P_____P__PP___ SH091951 -20.8682 141.099 -1 -16.7535 140.453 -16.8477 140.210 TC -20.8943 141.253 7 5 46
1951009S16140 1951 4 SP EA NOT_NAMED 1951-01-19 18:00:00 TS -18.1182 140.820 main 0 0 O_____P__PP___ jtwc_sh SH091951 -21.2000 141.700 -1 -16.8116 140.519 -16.9041 140.286 TC -21.1892 141.869 7 9 7
1951009S16140 1951 4 SP EA NOT_NAMED 1951-01-19 21:00:00 TS -17.5407 140.781 main 0 0 ______P__PP___ SH091951 -1 -16.8660 140.571 -16.9550 140.349 TC -21.4428 142.591 7 10 353
1951009S16140 1951 4 SP EA NOT_NAMED 1951-01-19 23:00:00 TS -17.2829 140.718 996 bom main 23 23 ______O__PO___ SH091951 -1 -16.9000 140.600 996 -16.9857 140.384 TC -21.6000 143.100 7 13 339
1951009S16140 1951 4 SP EA NOT_NAMED 1951-01-20 00:00:00 TS -16.9338 140.541 main 54 44 ______P__O____ -1 -16.9015 140.622 -17.0000 140.400 TC 30 999 7 5 341
1951009S16140 1951 4 SP EA NOT_NAMED 1951-01-20 03:00:00 TS -16.9549 140.602 main 42 42 ______P__P____ -1 -16.8962 140.679 -17.0235 140.461 TC 7 1 109
1951009S16140 1951 4 SP EA NOT_NAMED 1951-01-20 06:00:00 TS -16.9700 140.649 main 42 31 ______P__P____ -1 -16.8844 140.723 -17.0389 140.509 TC 7 1 110
1951009S16140 1951 4 SP EA NOT_NAMED 1951-01-20 09:00:00 TS -16.9849 140.684 main 31 31 ______P__P____ -1 -16.8766 140.754 -17.0504 140.543 TC 7 1 121
1951009S16140 1951 4 SP EA NOT_NAMED 1951-01-20 12:00:00 TS -17.0051 140.709 main 31 31 ______P__P____ -1 -16.8832 140.776 -17.0623 140.568 TC 1 139
1951009S16140 1951 4 SP EA NOT_NAMED 1951-01-20 15:00:00 TS -17.0365 140.724 main 31 31 ______P__P____ -1 -16.9147 140.789 -17.0790 140.584 TC 1 0
1951009S16140 1951 4 SP EA NOT_NAMED 1951-01-20 18:00:00 TS -17.0847 140.732 main 31 30 ______P__P____ -1 -16.9816 140.796 -17.1046 140.593 TC 1 0
1951009S16140 1951 4 SP EA NOT_NAMED 1951-01-20 21:00:00 TS -17.1555 140.735 main 30 30 ______P__P____ -1 -17.0943 140.799 -17.1435 140.598 TC 2 0
1951009S16140 1951 4 SP EA NOT_NAMED 1951-01-20 23:00:00 TS -17.2179 140.734 995 bom main 30 30 ______O__P____ -1 -17.2000 140.800 995 4 -17.1790 140.599 TC 2 0
1951009S16140 1951 4 SP EA NOT_NAMED 1951-01-21 00:00:00 TS -17.2550 140.734 main 23 23 ______P__O____ -1 -17.2650 140.801 995 -17.2000 140.600 TC 40 995 2 0
1951009S16140 1951 4 SP EA NOT_NAMED 1951-01-21 02:00:00 TS -17.3370 140.734 995 bom main 23 15 ______O__P____ -1 -17.4000 140.800 995 -17.2565 140.609 TC 2 192
1951009S16140 1951 4 SP EA NOT_NAMED 1951-01-21 03:00:00 TS -17.3775 140.733 main 15 10 ______P__P____ -1 -17.4608 140.798 -17.2878 140.613 TC 2 190
1951009S16140 1951 4 SP EA NOT_NAMED 1951-01-21 06:00:00 TS -17.4978 140.726 main 10 0 ______P__P____ -1 -17.6216 140.786 -17.3925 140.622 TC 2 186
1951009S16140 1951 4 SP EA NOT_NAMED 1951-01-21 09:00:00 TS -17.6168 140.714 main 0 0 ______P__P____ -1 -17.7552 140.765 -17.5109 140.628 TC 2 190
1951009S16140 1951 4 SP EA NOT_NAMED 1951-01-21 12:00:00 TS -17.7351 140.696 main 0 0 ______P__P____ -1 -17.8676 140.737 -17.6400 140.630 TC 2 191
1951009S16140 1951 4 SP EA NOT_NAMED 1951-01-21 15:00:00 TS -17.8531 140.675 main 0 0 ______P__P____ -1 -17.9652 140.703 -17.7766 140.628 TC 2 191
1951009S16140 1951 4 SP EA NOT_NAMED 1951-01-21 18:00:00 TS -17.9713 140.651 main 0 0 ______P__P____ -1 -18.0541 140.666 -17.9175 140.622 TC 2 192
1951009S16140 1951 4 SP EA NOT_NAMED 1951-01-21 21:00:00 TS -18.0920 140.623 main 0 0 ______P__P____ -1 -18.1406 140.627 -18.0597 140.613 TC 2 191
1951009S16140 1951 4 SP EA NOT_NAMED 1951-01-21 23:00:00 TS -18.1728 140.604 999 bom main 0 0 ______O__P____ -1 -18.2000 140.600 999 -18.1536 140.605 TC 3 196
1951009S16140 1951 4 SP EA NOT_NAMED 1951-01-22 00:00:00 TS -18.2121 140.588 main 0 0 ______P__O____ -1 -18.2272 140.573 -18.2000 140.600 TC 30 999 2 206
1951009S16140 1951 4 SP EA NOT_NAMED 1951-01-22 03:00:00 TS -18.3193 140.532 main 0 0 ______P__P____ -1 -18.3026 140.480 -18.3359 140.583 TC 2 208
1951009S16140 1951 4 SP EA NOT_NAMED 1951-01-22 06:00:00 TS -18.4213 140.473 main 0 0 ______P__P____ -1 -18.3751 140.382 -18.4675 140.563 TC 2 209
1951009S16140 1951 4 SP EA NOT_NAMED 1951-01-22 09:00:00 TS -18.5238 140.416 main 0 0 ______P__P____ -1 -18.4522 140.291 -18.5953 140.540 TC 2 206
1951009S16140 1951 4 SP EA NOT_NAMED 1951-01-22 12:00:00 TS -18.6308 140.366 main 0 0 ______P__P____ -1 -18.5417 140.217 -18.7200 140.515 TC 2 200
1951009S16140 1951 4 SP EA NOT_NAMED 1951-01-22 15:00:00 TS -18.7467 140.331 main 0 0 ______P__P____ -1 -18.6512 140.175 -18.8422 140.488 TC 3 188
1951009S16140 1951 4 SP EA NOT_NAMED 1951-01-22 18:00:00 TS -18.8755 140.317 main 0 0 ______P__P____ -1 -18.7885 140.174 -18.9625 140.460 TC 3 0
1951009S16140 1951 4 SP EA NOT_NAMED 1951-01-22 21:00:00 TS -19.0128 140.314 main 0 0 ______P__P____ -1 -18.9613 140.228 -19.0816 140.430 TC 3 0
1951009S16140 1951 4 SP EA NOT_NAMED 1951-01-22 23:00:00 TS -19.1202 140.337 1000 bom main 0 0 ______O__P____ -1 -19.1000 140.300 1000 -19.1606 140.410 TC 4 168
1951009S16140 1951 4 SP EA NOT_NAMED 1951-01-23 00:00:00 TS -19.1817 140.359 main 0 0 ______P__O____ -1 -19.1772 140.348 -19.2000 140.400 TC 30 1000 6 149
1951009S16140 1951 4 SP EA NOT_NAMED 1951-01-23 03:00:00 NR -19.4385 140.540 main 0 0 ______P_______ -1 -19.4385 140.540 TC 7 144
1951009S16140 1951 4 SP EA NOT_NAMED 1951-01-23 06:00:00 NR -19.7399 140.794 main 0 0 ______P_______ -1 -19.7399 140.794 TC 8 140
1951009S16140 1951 4 SP EA NOT_NAMED 1951-01-23 09:00:00 NR -20.0749 141.103 main 0 0 ______P_______ -1 -20.0749 141.103 TC 9 138
1951009S16140 1951 4 SP EA NOT_NAMED 1951-01-23 12:00:00 NR -20.4374 141.458 main 0 0 ______P_______ -1 -20.4374 141.458 TC 10 137
1951009S16140 1951 4 SP EA NOT_NAMED 1951-01-23 15:00:00 NR -20.8210 141.849 main 0 0 ______P_______ -1 -20.8210 141.849 TC 11 136
1951009S16140 1951 4 SP EA NOT_NAMED 1951-01-23 18:00:00 NR -21.2195 142.267 main 0 0 ______P_______ -1 -21.2195 142.267 TC 11 135
1951009S16140 1951 4 SP EA NOT_NAMED 1951-01-23 21:00:00 NR -21.6267 142.704 main 0 0 ______P_______ -1 -21.6267 142.704 TC 12 135
1951009S16140 1951 4 SP EA NOT_NAMED 1951-01-23 23:00:00 NR -21.9000 143.000 1004 bom main 0 ______O_______ -1 -21.9000 143.000 1004 TC 12 135

デジタル台風データ・検索

IBTrACS Databaseについて

本データベースは、米国NOAAが公開する1842年以降の世界の熱帯低気圧のベストトラックデータアーカイブInternational Best Track Archive for Climate Stewardship (IBTrACS)を、ウェブで閲覧しやすい形式に変換したものです。

最終更新日:2021-10-21